• Join FlightAware (Why Join?)
  • Login
  • US Flag 
11:11AM EDT


 

Airport Tracker/Info


-or-


 

Live Flight TrackerFlight Track Log ✈ EJA929 ✈ 22-Sep-2013 ✈ KPIE - KESN

Flight Track Log - Related Links

Times and Time Zones

All times are in EDT time to prevent confusion due to time zone crossing. See the EJA929 flight status page for this flight to view local times or setup timezone preferences in your user account.

Time Position Orientation Groundspeed Altitude Reporting Facility
EDT Latitude Longitude Course Direction KTS MPH feet Rate Location/Type
08:52AM 27.9000 -82.6833 249° West 181 208 500  Level Tampa TRACON
08:53AM 27.8833 -82.7333 249° West 203 234 2,800 1,920 Climbing Tampa TRACON
08:55AM 27.9767 -82.7375 358° North 216 249 6,000 1,740 Climbing Jacksonville Center
08:56AM 28.0456 -82.6975 27° Northeast 243 280 7,800 2,100 Climbing Jacksonville Center
08:57AM 28.1183 -82.6550 27° Northeast 264 304 10,300 1,980 Climbing Jacksonville Center
08:58AM 28.2019 -82.6242 18° North 288 331 11,800 1,500 Climbing Jacksonville Center
08:59AM 28.3000 -82.6214 North 322 371 13,300 1,500 Climbing Jacksonville Center
09:00AM 28.4042 -82.6189 North 349 402 14,800 1,500 Climbing Jacksonville Center
09:01AM 28.5128 -82.6161 North 368 423 16,300 1,500 Climbing Jacksonville Center
09:02AM 28.6192 -82.6111 North 380 437 17,800 1,500 Climbing Jacksonville Center
09:03AM 28.7319 -82.6083 North 385 443 19,400 1,500 Climbing Jacksonville Center
09:04AM 28.8403 -82.6033 North 390 449 20,900 1,260 Climbing Jacksonville Center
09:05AM 28.9553 -82.6008 North 396 456 22,000 540 Climbing Jacksonville Center
09:06AM 29.0783 -82.5981 North 411 473 22,000  Level Jacksonville Center
09:07AM 29.2078 -82.5928 North 437 503 22,000  Level Jacksonville Center
09:08AM 29.3350 -82.5878 North 451 519 22,000  Level Jacksonville Center
09:09AM 29.4558 -82.5300 23° Northeast 458 527 22,000  Level Jacksonville Center
09:10AM 29.5706 -82.4603 28° Northeast 453 521 22,000  Level Jacksonville Center
09:11AM 29.6872 -82.3928 27° Northeast 459 528 22,000  Level Jacksonville Center
09:12AM 29.7933 -82.3350 25° Northeast 464 534 22,000 300 Level Jacksonville Center
09:13AM 29.9100 -82.2647 28° Northeast 464 534 22,700 480 Climbing Jacksonville Center
09:14AM 30.0369 -82.1847 29° Northeast 464 534 23,000 120 Climbing Jacksonville Center
09:15AM 30.1556 -82.1142 27° Northeast 475 547 23,000  Level Jacksonville Center
09:16AM 30.2719 -82.0458 27° Northeast 470 541 23,000  Level Jacksonville Center
09:17AM 30.3906 -81.9750 27° Northeast 470 541 23,000  Level Jacksonville Center
09:18AM 30.5092 -81.9064 26° Northeast 470 541 23,000  Level Jacksonville Center
09:19AM 30.6275 -81.8375 27° Northeast 470 541 23,000  Level Jacksonville Center
09:20AM 30.7439 -81.7614 29° Northeast 470 541 23,000  Level Jacksonville Center
09:21AM 30.8453 -81.6658 39° Northeast 470 541 23,000  Level Jacksonville Center
09:22AM 30.9486 -81.5628 41° Northeast 470 541 23,000  Level Jacksonville Center
09:23AM 31.0497 -81.4594 41° Northeast 476 548 23,000  Level Jacksonville Center
09:24AM 31.1508 -81.3558 41° Northeast 484 557 23,000  Level Jacksonville Center
09:25AM 31.2519 -81.2522 41° Northeast 479 551 23,000  Level Jacksonville Center
09:26AM 31.3469 -81.1678 37° Northeast 479 551 23,000  Level Jacksonville Center
09:27AM 31.4647 -81.0950 28° Northeast 468 539 23,000  Level Jacksonville Center
09:28AM 31.5975 -81.0217 25° Northeast 468 539 23,000  Level Jacksonville Center
09:29AM 31.7133 -80.9536 27° Northeast 468 539 23,000  Level Jacksonville Center
09:30AM 31.8311 -80.8850 26° Northeast 462 532 23,000  Level Jacksonville Center
09:31AM 31.9367 -80.8239 26° Northeast 462 532 23,000  Level Jacksonville Center
09:32AM 32.0647 -80.7475 27° Northeast 462 532 23,000  Level Jacksonville Center
09:33AM 32.1661 -80.6886 26° Northeast 456 525 23,000  Level Jacksonville Center
09:34AM 32.2983 -80.6069 28° Northeast 470 541 23,000  Level Jacksonville Center
09:35AM 32.4119 -80.5450 25° Northeast 460 529 23,000  Level Jacksonville Center
09:36AM 32.5233 -80.4781 27° Northeast 455 524 23,000 -120 Level Jacksonville Center
09:37AM 32.6494 -80.4031 27° Northeast 460 529 22,800 -360 Descending Jacksonville Center
09:38AM 32.7608 -80.3358 27° Northeast 461 531 22,300 -540 Descending Jacksonville Center
09:39AM 32.8906 -80.2603 26° Northeast 472 543 21,800 -600 Descending Jacksonville Center
09:40AM 33.0061 -80.1928 26° Northeast 460 529 21,200 -420 Descending Jacksonville Center
09:41AM 33.1214 -80.1222 27° Northeast 461 531 21,000 -120 Descending Jacksonville Center
09:42AM 33.2244 -80.0569 28° Northeast 462 532 21,000  Level Jacksonville Center
09:43AM 33.3417 -79.9861 27° Northeast 457 526 21,000  Level Jacksonville Center
09:44AM 33.4528 -79.9153 28° Northeast 457 526 21,000  Level Jacksonville Center
09:45AM 33.5681 -79.8467 26° Northeast 462 532 21,000  Level Jacksonville Center
09:46AM 33.6875 -79.7775 26° Northeast 462 532 21,000  Level Jacksonville Center
09:47AM 33.8025 -79.7086 26° Northeast 462 532 21,000  Level Jacksonville Center
09:48AM 33.9133 -79.6369 28° Northeast 462 532 21,000  Level Jacksonville Center
09:50AM 34.1456 -79.4961 27° Northeast 465 535 21,000  Level Washington Center
09:51AM 34.2372 -79.4428 26° Northeast 465 535 21,000  Level Washington Center
09:52AM 34.3647 -79.3633 27° Northeast 465 535 21,000  Level Washington Center
09:53AM 34.4756 -79.2903 29° Northeast 460 529 21,000  Level Washington Center
09:54AM 34.5861 -79.2222 27° Northeast 455 524 21,000  Level Washington Center
09:55AM 34.6967 -79.1539 27° Northeast 445 512 21,000  Level Washington Center
09:56AM 34.8072 -79.0853 27° Northeast 439 505 21,000  Level Washington Center
09:57AM 34.9178 -79.0142 28° Northeast 439 505 21,000  Level Washington Center
09:58AM 35.0283 -78.9450 27° Northeast 439 505 21,000  Level Washington Center
09:59AM 35.1367 -78.8758 28° Northeast 439 505 21,000  Level Washington Center
10:00AM 35.2469 -78.8067 27° Northeast 439 505 21,000  Level Washington Center
10:01AM 35.3572 -78.7372 27° Northeast 439 505 21,000  Level Washington Center
10:02AM 35.4761 -78.6603 28° Northeast 439 505 21,000  Level Washington Center
10:03AM 35.5739 -78.5978 27° Northeast 439 505 21,000  Level Washington Center
10:04AM 35.6967 -78.5181 28° Northeast 444 511 21,000  Level Washington Center
10:05AM 35.8069 -78.4478 27° Northeast 439 505 21,000  Level Washington Center
10:06AM 35.9150 -78.3772 28° Northeast 439 505 21,000  Level Washington Center
10:07AM 36.0253 -78.3067 27° Northeast 439 505 21,000  Level Washington Center
10:08AM 36.1331 -78.2358 28° Northeast 439 505 21,000 -240 Level Washington Center
10:09AM 36.2453 -78.1597 29° Northeast 439 505 20,600 -480 Descending Washington Center
10:10AM 36.3536 -78.0731 33° Northeast 450 518 20,100 -600 Descending Washington Center
10:11AM 36.4597 -77.9886 33° Northeast 455 524 19,500 -600 Descending Washington Center
10:12AM 36.5678 -77.9014 33° Northeast 460 529 19,000 -300 Descending Washington Center
10:13AM 36.6758 -77.8164 32° Northeast 460 529 19,000  Level Washington Center
10:14AM 36.7794 -77.7339 33° Northeast 454 522 19,000  Level Washington Center
10:15AM 36.8853 -77.6511 32° Northeast 449 517 19,000  Level Washington Center
10:16AM 36.9889 -77.5681 33° Northeast 449 517 19,000  Level Washington Center
10:17AM 37.0947 -77.4822 33° Northeast 449 517 19,000 -540 Level Washington Center
10:18AM 37.2003 -77.3989 32° Northeast 449 517 18,000 -1,260 Descending Washington Center
10:19AM 37.3058 -77.3125 33° Northeast 449 517 16,500 -1,500 Descending Washington Center
10:20AM 37.4050 -77.2364 31° Northeast 439 505 15,000 -780 Descending Washington Center
10:21AM 37.4933 -77.1622 34° Northeast 426 490 15,000  Level Washington Center
10:22AM 37.5906 -77.0806 34° Northeast 420 483 15,000  Level Washington Center
10:23AM 37.6894 -77.0011 32° Northeast 420 483 15,000 -120 Level Washington Center
10:24AM 37.7925 -76.9189 32° Northeast 426 490 14,800 -660 Descending Washington Center
10:25AM 37.8894 -76.8364 34° Northeast 426 490 13,700 -1,320 Descending Washington Center
10:25AM 37.9314 -76.8056 30° Northeast 412 474 13,100 -1,500 Descending Washington Center
10:25AM 37.9544 -76.7875 32° Northeast 408 470 12,800 -840 Descending Washington Center
10:26AM 37.9842 -76.7561 40° Northeast 420 483 12,500 -1,320 Descending Washington Center
10:26AM 38.0533 -76.7044 30° Northeast 399 459 11,500 -1,320 Descending Washington Center
10:27AM 38.0786 -76.6811 36° Northeast 420 483 11,300 -900 Descending Washington Center
10:27AM 38.1436 -76.6319 31° Northeast 382 440 10,600 -840 Descending Washington Center
10:28AM 38.1625 -76.6083 45° Northeast 397 457 10,500 -840 Descending Washington Center
10:28AM 38.2172 -76.5694 29° Northeast 291 335 9,800 -1,020 Descending Washington Center
10:29AM 38.2319 -76.5486 48° Northeast 349 402 9,500 -1,740 Descending Washington Center
10:29AM 38.2844 -76.5175 25° Northeast 276 318 8,100 -1,740 Descending Washington Center
10:30AM 38.2969 -76.4967 53° Northeast 300 345 7,800 -1,680 Descending Washington Center
10:30AM 38.3514 -76.4575 29° Northeast 281 323 6,400 -1,920 Descending Washington Center
10:31AM 38.3744 -76.4367 35° Northeast 281 323 5,900 -1,500 Descending Washington Center
10:32AM 38.4333 -76.3894 32° Northeast 268 308 4,500 -1,560 Descending Washington Center
10:32AM 38.4625 -76.3633 35° Northeast 205 236 3,500 -1,380 Descending Washington Center
10:33AM 38.4794 -76.3475 36° Northeast 234 269 3,100 -540 Descending Washington Center
10:33AM 38.5089 -76.3239 32° Northeast 183 211 3,000 -120 Descending Washington Center
10:34AM 38.5214 -76.3108 39° Northeast 202 232 3,000  Level Washington Center
10:35AM 38.5653 -76.2742 33° Northeast 185 213 3,000 -360 Level Washington Center
10:37AM 38.6717 -76.1641 21° North  Level FlightAware Approximate
10:38AM 38.7167 -76.1333 30° Northeast 186 214 1,500  Level Potomac TRACON
10:39AM 38.7500 -76.1000 38° Northeast 174 200 900 -360 Descending Potomac TRACON
10:40AM 38.8000 -76.0833 15° North 149 171 900  Level Potomac TRACON
10:42AM 38.8000 -76.0667 30° Northeast  Level FlightAware Approximate
10:44AM 38.8000 -76.0667 30° Northeast  Level FlightAware Approximate
10:49AM 38.8042 -76.0690 30° Northeast  Level Estimated
10:50AM 38.8000 -76.0667 30° Northeast  Level FlightAware Approximate
10:51AM 38.8042 -76.0690 30° Northeast  Level Estimated
10:52AM 38.8000 -76.0667 30° Northeast  Level FlightAware Approximate
10:53AM 38.8042 -76.0690 30° Northeast  Level Estimated
10:54AM 38.8000 -76.0667 30° Northeast  Level FlightAware Approximate
10:55AM 38.8042 -76.0690 30° Northeast  Level Estimated
10:56AM 38.8000 -76.0667 30° Northeast  Level FlightAware Approximate